createdAt,value
2018-08-07T00:00:25.821Z,27.17
2018-08-07T00:01:31.450Z,27.16
2018-08-07T00:02:35.660Z,27.15
2018-08-07T00:03:40.042Z,27.14
2018-08-07T00:04:44.350Z,27.13
2018-08-07T00:05:48.591Z,27.12
2018-08-07T00:06:52.786Z,27.12
2018-08-07T00:07:57.016Z,27.11
2018-08-07T00:09:01.222Z,27.10
2018-08-07T00:10:07.070Z,27.10
2018-08-07T00:11:11.506Z,27.07
2018-08-07T00:12:15.878Z,27.08
2018-08-07T00:13:20.221Z,27.06
2018-08-07T00:14:24.472Z,27.07
2018-08-07T00:15:29.150Z,27.06
2018-08-07T00:16:33.434Z,27.05
2018-08-07T00:17:37.651Z,27.04
2018-08-07T00:18:42.018Z,27.03
2018-08-07T00:19:46.253Z,27.01
2018-08-07T00:20:50.574Z,27.01
2018-08-07T00:21:54.778Z,26.99
2018-08-07T00:22:59.050Z,26.97
2018-08-07T00:24:03.240Z,26.97
2018-08-07T00:25:08.552Z,26.95
2018-08-07T00:26:12.670Z,26.94
2018-08-07T00:27:16.920Z,26.91
2018-08-07T00:28:21.087Z,26.90
2018-08-07T00:29:25.463Z,26.89
2018-08-07T00:30:29.753Z,26.88
2018-08-07T00:31:33.921Z,26.85
2018-08-07T00:32:38.633Z,26.85
2018-08-07T00:33:43.335Z,26.84
2018-08-07T00:34:47.498Z,26.83
2018-08-07T00:35:51.650Z,26.82
2018-08-07T00:36:55.838Z,26.81
2018-08-07T00:38:00.032Z,26.79
2018-08-07T00:39:08.848Z,26.77
2018-08-07T00:40:14.599Z,26.76
2018-08-07T00:41:18.730Z,26.75
2018-08-07T00:42:22.890Z,26.73
2018-08-07T00:43:27.083Z,26.72
2018-08-07T00:44:31.288Z,26.71
2018-08-07T00:45:35.455Z,26.70
2018-08-07T00:46:39.654Z,26.69
2018-08-07T00:47:44.041Z,26.69
2018-08-07T00:48:48.245Z,26.68
2018-08-07T00:49:52.436Z,26.69
2018-08-07T00:50:56.637Z,26.67
2018-08-07T00:52:00.950Z,26.67
2018-08-07T00:53:06.081Z,26.66
2018-08-07T00:54:10.487Z,26.65
2018-08-07T00:55:15.089Z,26.63
2018-08-07T00:56:19.462Z,26.61
2018-08-07T00:57:23.669Z,26.59
2018-08-07T00:58:27.946Z,26.56
2018-08-07T00:59:32.189Z,26.53
2018-08-07T01:00:36.646Z,26.52
2018-08-07T01:01:40.870Z,26.49
2018-08-07T01:02:45.096Z,26.48
2018-08-07T01:03:49.302Z,26.47
2018-08-07T01:04:53.508Z,26.46
2018-08-07T01:05:57.673Z,26.47
2018-08-07T01:07:01.834Z,26.46
2018-08-07T01:08:06.030Z,26.46
2018-08-07T01:09:11.235Z,26.46
2018-08-07T01:10:16.974Z,26.45
2018-08-07T01:11:21.277Z,26.44
2018-08-07T01:12:25.661Z,26.43
2018-08-07T01:13:29.830Z,26.41
2018-08-07T01:14:34.014Z,26.42
2018-08-07T01:15:38.288Z,26.41
2018-08-07T01:16:42.651Z,26.40
2018-08-07T01:17:47.277Z,26.39
2018-08-07T01:18:51.449Z,26.38
2018-08-07T01:19:55.698Z,26.38
2018-08-07T01:21:00.355Z,26.36
2018-08-07T01:22:04.736Z,26.34
2018-08-07T01:23:08.956Z,26.33
2018-08-07T01:24:13.412Z,26.31
2018-08-07T01:25:20.954Z,26.31
2018-08-07T01:26:25.182Z,26.29
2018-08-07T01:27:29.483Z,26.28
2018-08-07T01:28:33.682Z,26.26
2018-08-07T01:29:37.890Z,26.26
2018-08-07T01:30:42.947Z,26.24
2018-08-07T01:31:47.142Z,26.24
2018-08-07T01:32:51.570Z,26.24
2018-08-07T01:33:56.464Z,26.23
2018-08-07T01:35:00.833Z,26.22
2018-08-07T01:36:05.621Z,26.20
2018-08-07T01:37:09.902Z,26.19
2018-08-07T01:38:14.334Z,26.17
2018-08-07T01:39:18.526Z,26.16
2018-08-07T01:40:22.930Z,26.14
2018-08-07T01:41:27.153Z,26.14
2018-08-07T01:42:31.589Z,26.13
2018-08-07T01:43:35.986Z,26.11
2018-08-07T01:44:40.169Z,26.09
2018-08-07T01:45:44.378Z,26.07
2018-08-07T01:46:48.626Z,26.07
2018-08-07T01:47:52.854Z,26.06
2018-08-07T01:48:57.127Z,26.03
2018-08-07T01:50:01.337Z,26.03
2018-08-07T01:51:05.565Z,26.02
2018-08-07T01:52:09.770Z,26.01
2018-08-07T01:53:14.176Z,26.01
2018-08-07T01:54:18.670Z,25.99
2018-08-07T01:55:25.834Z,25.98
2018-08-07T01:56:30.079Z,25.98
2018-08-07T01:57:34.428Z,25.98
2018-08-07T01:58:38.654Z,25.98
2018-08-07T01:59:42.871Z,25.98
2018-08-07T02:00:47.182Z,25.98
2018-08-07T02:01:51.538Z,25.96
2018-08-07T02:02:55.978Z,25.96
2018-08-07T02:04:00.334Z,25.95
2018-08-07T02:05:06.175Z,25.94
2018-08-07T02:06:10.492Z,25.91
2018-08-07T02:07:14.770Z,25.90
2018-08-07T02:08:19.011Z,25.91
2018-08-07T02:09:23.281Z,25.89
2018-08-07T02:10:27.659Z,25.86
2018-08-07T06:05:29.510Z,25.86
2018-08-07T06:06:33.950Z,25.98
2018-08-07T06:07:38.508Z,26.00
2018-08-07T06:08:42.765Z,26.05
2018-08-07T06:09:46.958Z,26.15
2018-08-07T06:10:51.182Z,26.24
2018-08-07T06:11:55.419Z,26.34
2018-08-07T06:13:00.238Z,26.48
2018-08-07T06:14:04.565Z,26.60
2018-08-07T06:15:14.110Z,26.71
2018-08-07T06:16:18.505Z,26.83
2018-08-07T06:17:22.710Z,26.92
2018-08-07T06:18:27.042Z,27.01
2018-08-07T06:19:31.434Z,27.12
2018-08-07T06:20:35.613Z,27.21
2018-08-07T06:21:40.037Z,27.30
2018-08-07T06:22:44.309Z,27.38
2018-08-07T06:23:48.659Z,27.47
2018-08-07T06:24:53.103Z,27.52
2018-08-07T06:25:57.302Z,27.60
2018-08-07T06:27:01.509Z,27.67
2018-08-07T06:28:06.087Z,27.71
2018-08-07T06:29:10.312Z,27.75
2018-08-07T06:30:17.302Z,27.80
2018-08-07T06:31:21.625Z,27.86
2018-08-07T06:32:26.014Z,27.90
2018-08-07T06:33:30.190Z,27.97
2018-08-07T06:34:35.469Z,27.99
2018-08-07T06:35:40.266Z,28.03
2018-08-07T06:36:44.495Z,28.05
2018-08-07T06:37:48.969Z,28.08
2018-08-07T06:38:53.372Z,28.12
2018-08-07T06:39:57.699Z,28.14
2018-08-07T06:41:02.462Z,28.17
2018-08-07T06:42:07.008Z,28.23
2018-08-07T06:43:11.282Z,28.25
2018-08-07T06:44:15.743Z,28.26
2018-08-07T06:45:19.985Z,28.26
2018-08-07T06:46:24.232Z,28.27
2018-08-07T06:47:28.430Z,28.31
2018-08-07T06:48:32.981Z,28.33
2018-08-07T06:49:37.173Z,28.38
2018-08-07T06:50:41.435Z,28.37
2018-08-07T06:51:45.660Z,28.44
2018-08-07T06:52:50.714Z,28.48
2018-08-07T06:53:54.980Z,28.48
2018-08-07T06:54:59.382Z,28.52
2018-08-07T06:56:03.632Z,28.55
2018-08-07T06:57:07.911Z,28.57
2018-08-07T06:58:12.329Z,28.58
2018-08-07T06:59:16.740Z,28.61
2018-08-07T07:00:24.354Z,28.62
2018-08-07T07:01:28.857Z,28.62
2018-08-07T07:02:33.134Z,28.62
2018-08-07T07:03:37.491Z,28.62
2018-08-07T07:04:41.810Z,28.64
2018-08-07T07:05:46.192Z,28.64
2018-08-07T07:06:50.397Z,28.65
2018-08-07T07:07:54.738Z,28.65
2018-08-07T07:08:58.947Z,28.66
2018-08-07T07:10:03.151Z,28.68
2018-08-07T07:11:07.466Z,28.68
2018-08-07T07:12:11.707Z,28.69
2018-08-07T07:13:16.015Z,28.71
2018-08-07T07:14:20.199Z,28.70
2018-08-07T07:15:24.633Z,28.72
2018-08-07T07:16:28.778Z,28.73
2018-08-07T07:17:33.259Z,28.73
2018-08-07T07:18:37.734Z,28.74
2018-08-07T07:19:42.010Z,28.71
2018-08-07T07:20:46.262Z,28.72
2018-08-07T07:21:50.484Z,28.76
2018-08-07T07:22:54.650Z,28.76
2018-08-07T07:23:58.951Z,28.77
2018-08-07T07:25:03.309Z,28.74
2018-08-07T07:26:07.579Z,28.80
2018-08-07T07:27:11.868Z,28.80
2018-08-07T07:28:16.198Z,28.81
2018-08-07T07:29:20.504Z,28.78
2018-08-07T07:30:24.834Z,28.84
2018-08-07T07:31:29.067Z,28.84
2018-08-07T07:32:33.230Z,28.85
2018-08-07T07:33:37.667Z,28.82
2018-08-07T07:34:41.996Z,28.86
2018-08-07T07:35:46.162Z,28.87
2018-08-07T07:36:50.338Z,28.87
2018-08-07T07:37:54.541Z,28.83
2018-08-07T07:38:58.732Z,28.89
2018-08-07T07:40:03.062Z,28.89
2018-08-07T07:41:07.271Z,28.89
2018-08-07T07:42:11.504Z,28.90
2018-08-07T07:43:15.792Z,28.91
2018-08-07T07:44:20.143Z,28.92
2018-08-07T07:45:24.353Z,28.90
2018-08-07T07:46:28.490Z,28.89
2018-08-07T07:47:32.658Z,28.94
2018-08-07T07:48:36.833Z,28.94
2018-08-07T07:49:41.001Z,28.96
2018-08-07T07:50:45.191Z,28.95
2018-08-07T07:51:49.503Z,28.91
2018-08-07T07:52:53.741Z,28.96
2018-08-07T07:53:57.960Z,28.97
2018-08-07T07:55:02.168Z,29.02
2018-08-07T07:56:06.283Z,29.03
2018-08-07T07:57:10.522Z,29.03
2018-08-07T07:58:14.799Z,28.98
2018-08-07T07:59:18.993Z,29.02
2018-08-07T08:00:25.507Z,28.99
2018-08-07T08:01:29.695Z,29.05
2018-08-07T08:02:33.882Z,29.08
2018-08-07T08:03:38.218Z,29.08
2018-08-07T08:04:42.408Z,29.09
2018-08-07T08:05:46.762Z,29.10
2018-08-07T08:06:51.061Z,29.11
2018-08-07T08:07:55.676Z,29.14
2018-08-07T08:09:00.215Z,29.16
2018-08-07T08:10:05.437Z,29.19
2018-08-07T08:11:10.208Z,29.22
2018-08-07T08:12:14.322Z,29.24
2018-08-07T08:13:18.583Z,29.28
2018-08-07T08:14:23.190Z,29.30
2018-08-07T08:15:27.418Z,29.32
2018-08-07T08:16:31.870Z,29.34
2018-08-07T08:17:36.198Z,29.35
2018-08-07T08:18:40.449Z,29.34
2018-08-07T08:19:44.840Z,29.35
2018-08-07T08:20:49.027Z,29.35
2018-08-07T08:21:53.251Z,29.35
2018-08-07T08:22:57.470Z,29.35
2018-08-07T08:24:01.906Z,29.35
2018-08-07T08:25:07.294Z,29.35
2018-08-07T08:26:11.519Z,29.34
2018-08-07T08:27:15.768Z,29.36
2018-08-07T08:28:20.081Z,29.35
2018-08-07T08:29:24.492Z,29.38
2018-08-07T08:30:28.465Z,29.40
2018-08-07T08:31:32.627Z,29.43
2018-08-07T08:32:37.320Z,29.47
2018-08-07T08:33:41.663Z,29.51
2018-08-07T08:34:45.990Z,29.48
2018-08-07T08:35:50.481Z,29.49
2018-08-07T08:36:54.877Z,29.56
2018-08-07T08:37:59.259Z,29.57
2018-08-07T08:39:03.922Z,29.58
2018-08-07T08:40:10.050Z,29.58
2018-08-07T08:41:14.515Z,29.57
2018-08-07T08:42:18.844Z,29.60
2018-08-07T08:43:23.415Z,29.60
2018-08-07T08:44:28.065Z,29.60
2018-08-07T08:45:32.485Z,29.61
2018-08-07T08:46:36.873Z,29.61
2018-08-07T08:47:41.983Z,29.64
2018-08-07T08:48:46.353Z,29.64
2018-08-07T08:49:50.648Z,29.64
2018-08-07T08:50:55.190Z,29.65
2018-08-07T08:51:59.734Z,29.67
2018-08-07T08:53:04.256Z,29.72
2018-08-07T08:54:08.711Z,29.76
2018-08-07T08:55:13.223Z,29.74
2018-08-07T08:56:17.518Z,29.83
2018-08-07T08:57:21.967Z,29.82
2018-08-07T08:58:26.234Z,29.90
2018-08-07T08:59:30.523Z,29.89
2018-08-07T09:00:34.819Z,29.90
2018-08-07T09:01:39.275Z,30.00
2018-08-07T09:02:45.055Z,30.03
2018-08-07T09:03:49.330Z,30.04
2018-08-07T09:04:53.713Z,30.05
2018-08-07T09:05:58.319Z,30.05
2018-08-07T09:07:02.566Z,30.05
2018-08-07T09:08:06.927Z,30.04
2018-08-07T09:09:13.187Z,30.03
2018-08-07T09:10:20.984Z,30.04
2018-08-07T09:11:26.188Z,30.01
2018-08-07T09:12:30.680Z,30.04
2018-08-07T09:13:35.018Z,30.04
2018-08-07T09:14:39.263Z,30.06
2018-08-07T09:15:43.739Z,30.08
2018-08-07T09:16:48.047Z,30.09
2018-08-07T09:17:52.381Z,30.10
2018-08-07T09:18:56.745Z,30.12
2018-08-07T09:20:00.971Z,30.11
2018-08-07T09:21:05.365Z,30.13
2018-08-07T09:22:09.635Z,30.13
2018-08-07T09:23:13.951Z,30.14
2018-08-07T09:24:18.472Z,30.16
2018-08-07T09:25:23.913Z,30.15
2018-08-07T09:26:28.193Z,30.17
2018-08-07T09:27:32.456Z,30.16
2018-08-07T09:28:36.999Z,30.21
2018-08-07T09:29:48.038Z,30.24
2018-08-07T09:30:52.363Z,30.27
2018-08-07T09:31:56.843Z,30.30
2018-08-07T09:33:01.415Z,30.31
2018-08-07T09:34:05.735Z,30.32
2018-08-07T09:35:10.325Z,30.33
2018-08-07T09:36:14.547Z,30.34
2018-08-07T09:37:19.028Z,30.36
2018-08-07T09:38:23.290Z,30.39
2018-08-07T09:39:27.621Z,30.45
2018-08-07T09:40:32.037Z,30.50
2018-08-07T09:41:36.346Z,30.54
2018-08-07T09:42:41.588Z,30.56
2018-08-07T09:43:45.810Z,30.56
2018-08-07T09:44:50.566Z,30.56
2018-08-07T09:45:54.840Z,30.58
2018-08-07T09:46:59.238Z,30.57
2018-08-07T09:48:06.008Z,30.57
2018-08-07T09:49:10.695Z,30.59
2018-08-07T09:50:15.974Z,30.59
2018-08-07T09:51:20.527Z,30.60
2018-08-07T09:52:24.858Z,30.59
2018-08-07T09:53:29.008Z,30.60
2018-08-07T09:54:33.221Z,30.60
2018-08-07T09:55:37.611Z,30.62
2018-08-07T09:56:42.109Z,30.67
2018-08-07T09:57:46.416Z,30.71
2018-08-07T09:58:50.639Z,30.74
2018-08-07T09:59:54.938Z,30.75
2018-08-07T10:01:04.453Z,30.80
2018-08-07T10:02:13.912Z,30.82
2018-08-07T10:03:19.095Z,30.87
2018-08-07T10:04:23.271Z,30.93
2018-08-07T10:05:29.004Z,30.95
2018-08-07T10:06:33.272Z,30.98
2018-08-07T10:07:37.673Z,30.97
2018-08-07T10:08:42.031Z,30.98
2018-08-07T10:09:46.375Z,30.99
2018-08-07T10:10:50.798Z,31.03
2018-08-07T10:11:55.100Z,31.09
2018-08-07T10:12:59.442Z,31.13
2018-08-07T10:14:03.796Z,31.17
2018-08-07T10:15:08.185Z,31.20
2018-08-07T10:16:12.663Z,31.19
2018-08-07T10:17:17.047Z,31.20
2018-08-07T10:18:21.595Z,31.24
2018-08-07T10:19:26.218Z,31.28
2018-08-07T10:20:30.956Z,31.33
2018-08-07T10:21:35.182Z,31.38
2018-08-07T10:22:40.321Z,31.43
2018-08-07T10:23:44.699Z,31.48
2018-08-07T10:24:49.359Z,31.52
2018-08-07T10:25:53.858Z,31.55
2018-08-07T10:26:58.456Z,31.60
2018-08-07T10:28:02.704Z,31.65
2018-08-07T10:29:07.017Z,31.69
2018-08-07T10:30:15.092Z,31.72
2018-08-07T10:31:19.361Z,31.74
2018-08-07T10:32:23.667Z,31.75
2018-08-07T10:33:27.986Z,31.76
2018-08-07T10:34:32.442Z,31.77
2018-08-07T10:35:37.048Z,31.76
2018-08-07T10:36:41.461Z,31.76
2018-08-07T10:37:46.397Z,31.76
2018-08-07T10:38:50.658Z,31.73
2018-08-07T10:39:55.041Z,31.71
2018-08-07T10:40:59.844Z,31.69
2018-08-07T10:42:04.160Z,31.68
2018-08-07T10:43:08.737Z,31.67
2018-08-07T10:44:13.237Z,31.66
2018-08-07T10:45:19.159Z,31.65
2018-08-07T10:46:23.424Z,31.65
2018-08-07T10:47:27.899Z,31.64
2018-08-07T10:48:32.340Z,31.64
2018-08-07T10:49:36.791Z,31.63
2018-08-07T10:50:41.382Z,31.66
2018-08-07T10:51:45.883Z,31.70
2018-08-07T10:52:50.543Z,31.76
2018-08-07T10:53:54.842Z,31.82
2018-08-07T10:54:59.246Z,31.84
2018-08-07T10:56:03.616Z,31.86
2018-08-07T10:57:08.081Z,31.89
2018-08-07T10:58:12.603Z,31.93
2018-08-07T10:59:17.255Z,31.96
2018-08-07T11:00:23.014Z,32.01
2018-08-07T11:01:27.593Z,32.03
2018-08-07T11:02:31.815Z,32.05
2018-08-07T11:03:36.081Z,32.05
2018-08-07T11:04:40.351Z,32.07
2018-08-07T11:05:44.669Z,32.12
2018-08-07T11:06:49.251Z,32.16
2018-08-07T11:07:53.802Z,32.23
2018-08-07T11:08:58.175Z,32.30
2018-08-07T11:10:02.887Z,32.34
2018-08-07T11:11:07.463Z,32.36
2018-08-07T11:12:11.899Z,32.35
2018-08-07T11:13:16.169Z,32.33
2018-08-07T11:14:20.633Z,32.33
2018-08-07T11:15:28.425Z,32.34
2018-08-07T11:16:32.795Z,32.37
2018-08-07T11:17:37.096Z,32.40
2018-08-07T11:18:41.637Z,32.44
2018-08-07T11:19:46.286Z,32.48
2018-08-07T11:20:50.555Z,32.53
2018-08-07T11:21:54.949Z,32.53
2018-08-07T11:23:00.754Z,32.56
2018-08-07T11:24:05.426Z,32.58
2018-08-07T11:25:09.773Z,32.59
2018-08-07T11:26:14.188Z,32.60
2018-08-07T11:27:18.439Z,32.58
2018-08-07T11:28:22.733Z,32.61
2018-08-07T11:29:26.946Z,32.65
2018-08-07T11:30:31.654Z,32.68
2018-08-07T11:31:36.116Z,32.71
2018-08-07T11:32:40.660Z,32.73
2018-08-07T11:33:45.093Z,32.76
2018-08-07T11:34:50.059Z,32.80
2018-08-07T11:35:54.458Z,32.86
2018-08-07T11:36:58.759Z,32.90
2018-08-07T11:38:03.499Z,32.93
2018-08-07T11:39:09.277Z,32.96
2018-08-07T11:40:17.442Z,32.97
2018-08-07T11:41:21.703Z,32.98
2018-08-07T11:42:25.956Z,33.03
2018-08-07T11:43:30.208Z,33.05
2018-08-07T11:44:34.659Z,33.05
2018-08-07T11:45:39.360Z,33.02
2018-08-07T11:46:43.892Z,33.00
2018-08-07T11:47:48.441Z,33.02
2018-08-07T11:48:53.317Z,33.04
2018-08-07T11:49:57.576Z,33.03
2018-08-07T11:51:02.054Z,33.02
2018-08-07T11:52:06.690Z,33.02
2018-08-07T11:53:11.072Z,33.00
2018-08-07T11:54:15.436Z,32.98
2018-08-07T11:55:20.493Z,32.97
2018-08-07T11:56:24.835Z,32.97
2018-08-07T11:57:29.117Z,32.98
2018-08-07T11:58:33.443Z,32.99
2018-08-07T11:59:37.830Z,32.98
2018-08-07T12:00:42.271Z,32.99
2018-08-07T12:01:46.983Z,32.98
2018-08-07T12:02:51.442Z,32.97
2018-08-07T12:03:55.740Z,32.98
2018-08-07T12:05:00.072Z,32.97
2018-08-07T12:06:04.576Z,32.96
2018-08-07T12:07:09.134Z,32.96
2018-08-07T12:08:13.459Z,32.99
2018-08-07T12:09:17.726Z,32.99
2018-08-07T12:10:22.183Z,32.98
2018-08-07T12:11:26.622Z,32.99
2018-08-07T12:12:31.339Z,32.99
2018-08-07T12:13:35.626Z,33.03
2018-08-07T12:14:39.905Z,33.07
2018-08-07T12:15:44.161Z,33.09
2018-08-07T12:16:48.396Z,33.13
2018-08-07T12:17:53.015Z,33.19
2018-08-07T12:18:57.287Z,33.25
2018-08-07T12:20:01.547Z,33.30
2018-08-07T12:21:06.028Z,33.36
2018-08-07T12:22:10.251Z,33.40
2018-08-07T12:23:14.495Z,33.45
2018-08-07T12:24:18.674Z,33.49
2018-08-07T12:25:22.971Z,33.54
2018-08-07T12:26:27.331Z,33.59
2018-08-07T12:27:31.781Z,33.62
2018-08-07T12:28:36.231Z,33.64
2018-08-07T12:29:40.514Z,33.63
2018-08-07T12:30:44.723Z,33.59
2018-08-07T12:32:17.076Z,33.59
2018-08-07T12:33:21.350Z,33.57
2018-08-07T12:34:25.634Z,33.55
2018-08-07T12:35:30.020Z,33.54
2018-08-07T12:36:34.271Z,33.54
2018-08-07T12:37:38.995Z,33.54
2018-08-07T12:38:43.308Z,33.54
2018-08-07T12:39:47.579Z,33.61
2018-08-07T12:40:51.825Z,33.67
2018-08-07T12:41:56.120Z,33.74
2018-08-07T12:43:01.836Z,33.77
2018-08-07T12:44:06.578Z,33.80
2018-08-07T12:45:11.100Z,33.84
2018-08-07T12:46:15.350Z,33.87
2018-08-07T12:47:19.566Z,33.90
2018-08-07T12:48:23.963Z,33.92
2018-08-07T12:49:28.158Z,33.93
2018-08-07T12:50:32.470Z,33.94
2018-08-07T12:51:36.703Z,33.93
2018-08-07T12:52:40.935Z,33.94
2018-08-07T12:53:45.310Z,33.96
2018-08-07T12:54:49.865Z,33.97
2018-08-07T12:55:54.443Z,34.01
2018-08-07T12:56:58.710Z,34.04
2018-08-07T12:58:03.155Z,34.04
2018-08-07T12:59:07.398Z,34.07
2018-08-07T13:00:19.719Z,34.08
2018-08-07T13:01:24.527Z,34.10
2018-08-07T13:02:28.726Z,34.11
2018-08-07T13:03:33.026Z,34.08
2018-08-07T13:04:37.287Z,34.06
2018-08-07T13:05:41.640Z,34.06
2018-08-07T13:06:46.036Z,34.03
2018-08-07T13:07:50.428Z,34.01
2018-08-07T13:08:54.695Z,33.97
2018-08-07T13:09:58.997Z,33.94
2018-08-07T13:11:03.380Z,33.91
2018-08-07T13:12:07.804Z,33.89
2018-08-07T13:13:12.371Z,33.87
2018-08-07T13:14:16.832Z,33.87
2018-08-07T13:15:21.718Z,33.87
2018-08-07T13:16:26.072Z,33.88
2018-08-07T13:17:30.347Z,33.92
2018-08-07T13:18:34.671Z,33.95
2018-08-07T13:19:38.934Z,33.99
2018-08-07T13:20:43.191Z,34.02
2018-08-07T13:21:47.892Z,34.06
2018-08-07T13:22:52.267Z,34.11
2018-08-07T13:23:56.535Z,34.16
2018-08-07T13:25:00.856Z,34.18
2018-08-07T13:26:05.545Z,34.20
2018-08-07T13:27:09.915Z,34.22
2018-08-07T13:28:14.223Z,34.20
2018-08-07T13:29:18.563Z,34.21
2018-08-07T13:30:25.860Z,34.24
2018-08-07T13:31:30.399Z,34.25
2018-08-07T13:32:34.902Z,34.24
2018-08-07T13:33:39.196Z,34.25
2018-08-07T13:34:43.474Z,34.25
2018-08-07T13:35:47.780Z,34.23
2018-08-07T13:36:52.277Z,34.22
2018-08-07T13:37:57.682Z,34.21
2018-08-07T13:39:02.239Z,34.22
2018-08-07T13:40:09.181Z,34.25
2018-08-07T13:41:13.786Z,34.29
2018-08-07T13:42:18.402Z,34.33
2018-08-07T13:43:22.804Z,34.35
2018-08-07T13:44:27.111Z,34.38
2018-08-07T13:45:31.566Z,34.42
2018-08-07T13:46:35.853Z,34.44
2018-08-07T13:47:40.487Z,34.48
2018-08-07T13:48:45.062Z,34.52
2018-08-07T13:49:49.399Z,34.52
2018-08-07T13:50:53.808Z,34.52
2018-08-07T13:51:58.229Z,34.53
2018-08-07T13:53:02.661Z,34.52
2018-08-07T13:54:07.155Z,34.53
2018-08-07T13:55:12.561Z,34.55
2018-08-07T13:56:16.977Z,34.55
2018-08-07T13:57:21.218Z,34.57
2018-08-07T13:58:25.678Z,34.58
2018-08-07T13:59:29.955Z,34.59
2018-08-07T14:00:34.205Z,34.60
2018-08-07T14:01:38.775Z,34.62
2018-08-07T14:02:43.338Z,34.65
2018-08-07T14:03:47.763Z,34.67
2018-08-07T14:04:52.079Z,34.70
2018-08-07T14:05:56.332Z,34.73
2018-08-07T14:07:00.580Z,34.75
2018-08-07T14:08:05.007Z,34.76
2018-08-07T14:09:09.642Z,34.75
2018-08-07T14:10:14.764Z,34.73
2018-08-07T14:11:19.058Z,34.71
2018-08-07T14:12:23.484Z,34.68
2018-08-07T14:13:27.695Z,34.66
2018-08-07T14:14:31.974Z,34.65
2018-08-07T14:15:36.332Z,34.63
2018-08-07T14:16:40.563Z,34.61
2018-08-07T14:17:45.690Z,34.59
2018-08-07T14:18:50.070Z,34.58
2018-08-07T14:19:54.364Z,34.57
2018-08-07T14:20:58.798Z,34.55
2018-08-07T14:22:03.331Z,34.54
2018-08-07T14:23:07.821Z,34.57
2018-08-07T14:24:12.263Z,34.59
2018-08-07T14:25:18.123Z,34.61
2018-08-07T14:26:22.629Z,34.61
2018-08-07T14:27:26.844Z,34.62
2018-08-07T14:28:31.086Z,34.63
2018-08-07T14:29:35.519Z,34.64
2018-08-07T14:30:39.739Z,34.63
2018-08-07T14:31:44.131Z,34.64
2018-08-07T14:32:48.745Z,34.65
2018-08-07T14:33:53.027Z,34.65
2018-08-07T14:34:57.409Z,34.66
2018-08-07T14:36:01.777Z,34.68
2018-08-07T14:37:06.314Z,34.68
2018-08-07T14:38:10.730Z,34.68
2018-08-07T14:39:15.041Z,34.70
2018-08-07T14:40:21.461Z,34.73
2018-08-07T14:41:25.776Z,34.77
2018-08-07T14:42:30.110Z,34.76
2018-08-07T14:43:34.371Z,34.75
2018-08-07T14:44:38.695Z,34.75
2018-08-07T14:45:42.931Z,34.76
2018-08-07T14:46:47.276Z,34.75
2018-08-07T14:47:52.459Z,34.77
2018-08-07T14:48:56.626Z,34.77
2018-08-07T14:50:01.112Z,34.77
2018-08-07T14:51:05.651Z,34.77
2018-08-07T14:52:10.037Z,34.75
2018-08-07T14:53:14.402Z,34.73
2018-08-07T14:54:18.649Z,34.72
2018-08-07T14:55:23.240Z,34.72
2018-08-07T14:56:27.474Z,34.71
2018-08-07T14:57:31.995Z,34.76
2018-08-07T14:58:36.279Z,34.81
2018-08-07T14:59:40.455Z,34.85
2018-08-07T15:00:44.899Z,34.89
2018-08-07T15:01:49.497Z,34.92
2018-08-07T15:02:53.791Z,34.96
2018-08-07T15:03:58.356Z,34.99
2018-08-07T15:05:02.877Z,35.02
2018-08-07T15:06:07.182Z,35.05
2018-08-07T15:07:11.407Z,35.07
2018-08-07T15:08:16.111Z,35.05
2018-08-07T15:09:20.486Z,35.06
2018-08-07T15:10:25.987Z,35.09
2018-08-07T15:11:30.248Z,35.11
2018-08-07T15:12:34.529Z,35.13
2018-08-07T15:13:38.817Z,35.13
2018-08-07T15:14:43.131Z,35.15
2018-08-07T15:15:47.450Z,35.16
2018-08-07T15:16:51.844Z,35.18
2018-08-07T15:17:56.303Z,35.18
2018-08-07T15:19:00.828Z,35.19
2018-08-07T15:20:05.855Z,35.17
2018-08-07T15:21:10.413Z,35.15
2018-08-07T15:22:14.719Z,35.16
2018-08-07T15:23:19.004Z,35.17
2018-08-07T15:24:23.337Z,35.16
2018-08-07T15:25:27.739Z,35.16
2018-08-07T15:26:32.135Z,35.13
2018-08-07T15:27:36.424Z,35.11
2018-08-07T15:28:40.673Z,35.08
2018-08-07T15:29:45.205Z,35.07
2018-08-07T15:30:49.504Z,35.04
2018-08-07T15:31:53.807Z,35.05
2018-08-07T15:32:58.198Z,35.07
2018-08-07T15:34:02.399Z,35.09
2018-08-07T15:35:06.622Z,35.12
2018-08-07T15:36:10.853Z,35.14
2018-08-07T15:37:15.047Z,35.18
2018-08-07T15:38:19.346Z,35.21
2018-08-07T15:39:23.817Z,35.24
2018-08-07T15:40:28.068Z,35.27
2018-08-07T15:41:32.322Z,35.27
2018-08-07T15:42:36.708Z,35.28
2018-08-07T15:43:40.950Z,35.29
2018-08-07T15:44:45.396Z,35.29
2018-08-07T15:45:49.698Z,35.31
2018-08-07T15:46:53.999Z,35.30
2018-08-07T15:47:58.338Z,35.29
2018-08-07T15:49:02.543Z,35.29
2018-08-07T15:50:09.096Z,35.27
2018-08-07T15:51:13.331Z,35.25
2018-08-07T15:52:17.648Z,35.26
2018-08-07T15:53:21.990Z,35.26
2018-08-07T15:54:26.187Z,35.26
2018-08-07T15:55:30.438Z,35.26
2018-08-07T15:56:34.667Z,35.25
2018-08-07T15:57:39.188Z,35.22
2018-08-07T15:58:43.441Z,35.20
2018-08-07T15:59:48.186Z,35.18
2018-08-07T16:00:52.533Z,35.17
2018-08-07T16:01:57.040Z,35.19
2018-08-07T16:03:03.387Z,35.21
2018-08-07T16:04:07.663Z,35.22
2018-08-07T16:05:12.026Z,35.23
2018-08-07T16:06:16.283Z,35.25
2018-08-07T16:07:20.562Z,35.26
2018-08-07T16:08:25.080Z,35.26
2018-08-07T16:09:29.300Z,35.27
2018-08-07T16:10:33.560Z,35.25
2018-08-07T16:11:38.047Z,35.23
2018-08-07T16:12:43.359Z,35.20
2018-08-07T16:13:47.723Z,35.20
2018-08-07T16:14:52.651Z,35.20
2018-08-07T16:15:56.933Z,35.20
2018-08-07T16:17:01.439Z,35.19
2018-08-07T16:18:05.849Z,35.17
2018-08-07T16:19:10.139Z,35.17
2018-08-07T16:20:14.387Z,35.17
2018-08-07T16:21:18.704Z,35.17
2018-08-07T16:22:23.068Z,35.18
2018-08-07T16:23:27.347Z,35.18
2018-08-07T16:24:31.800Z,35.17
2018-08-07T16:25:36.067Z,35.19
2018-08-07T16:26:40.285Z,35.22
2018-08-07T16:27:45.777Z,35.24
2018-08-07T16:28:50.002Z,35.28
2018-08-07T16:29:54.310Z,35.28
2018-08-07T16:30:58.519Z,35.29
2018-08-07T16:32:02.726Z,35.28
2018-08-07T16:33:07.003Z,35.30
2018-08-07T16:34:11.807Z,35.29
2018-08-07T16:35:17.536Z,35.28
2018-08-07T16:36:21.815Z,35.30
2018-08-07T16:37:26.100Z,35.27
2018-08-07T16:38:30.403Z,35.26
2018-08-07T16:39:34.657Z,35.26
2018-08-07T16:40:39.030Z,35.27
2018-08-07T16:41:43.384Z,35.27
2018-08-07T16:42:48.737Z,35.27
2018-08-07T16:43:52.995Z,35.25
2018-08-07T16:44:57.843Z,35.26
2018-08-07T16:46:02.535Z,35.27
2018-08-07T16:47:06.804Z,35.27
2018-08-07T16:48:11.315Z,35.28
2018-08-07T16:49:15.615Z,35.30
2018-08-07T16:50:22.052Z,35.32
2018-08-07T16:51:26.892Z,35.32
2018-08-07T16:52:31.366Z,35.31
2018-08-07T16:53:35.623Z,35.33
2018-08-07T16:54:39.996Z,35.32
2018-08-07T16:55:44.412Z,35.32
2018-08-07T16:56:48.671Z,35.31
2018-08-07T16:57:53.150Z,35.31
2018-08-07T16:58:57.674Z,35.32
2018-08-07T17:00:02.180Z,35.32
2018-08-07T17:01:06.655Z,35.31
2018-08-07T17:02:10.974Z,35.32
2018-08-07T17:03:15.280Z,35.31
2018-08-07T17:04:19.668Z,35.31
2018-08-07T17:05:24.055Z,35.31
2018-08-07T17:06:28.315Z,35.30
2018-08-07T17:07:32.967Z,35.30
2018-08-07T17:08:37.401Z,35.28
2018-08-07T17:09:41.678Z,35.28
2018-08-07T17:10:46.176Z,35.27
2018-08-07T17:11:50.473Z,35.25
2018-08-07T17:12:54.773Z,35.23
2018-08-07T17:13:59.055Z,35.21
2018-08-07T17:15:03.396Z,35.20
2018-08-07T17:16:07.988Z,35.19
2018-08-07T17:17:12.479Z,35.17
2018-08-07T17:18:16.828Z,35.16
2018-08-07T17:19:21.270Z,35.13
2018-08-07T17:20:25.649Z,35.13
2018-08-07T17:21:29.976Z,35.10
2018-08-07T17:22:34.469Z,35.10
2018-08-07T17:23:39.002Z,35.08
2018-08-07T17:24:43.256Z,35.06
2018-08-07T17:25:47.690Z,35.04
2018-08-07T17:26:52.275Z,35.02
2018-08-07T17:27:56.579Z,35.01
2018-08-07T17:29:00.886Z,35.00
2018-08-07T17:30:08.815Z,34.98
2018-08-07T17:31:13.091Z,34.96
2018-08-07T17:32:17.388Z,34.96
2018-08-07T17:33:21.783Z,34.92
2018-08-07T17:34:26.154Z,34.91
2018-08-07T17:35:30.422Z,34.88
2018-08-07T17:36:34.803Z,34.87
2018-08-07T17:37:39.531Z,34.85
2018-08-07T17:38:44.162Z,34.82
2018-08-07T17:39:48.524Z,34.80
2018-08-07T17:40:52.787Z,34.78
2018-08-07T17:41:57.160Z,34.74
2018-08-07T17:43:01.638Z,34.72
2018-08-07T17:44:06.007Z,34.69
2018-08-07T17:45:11.338Z,34.68